BAW8348 EGCC-EGLL
Flight info
| Callsign | BAW8348 |
|---|---|
| Flight time | 0h 42m |
| Altitude | 17000 |
| Route | LISTO L612 HON |
| Aircraft | A20N/M-SDE2E3FGHIRWXY/LB1 |
Departure
| Time | 2026-05-05 18:39 |
|---|---|
| Airport | Manchester Airport (EGCC) |
Arrival
| Time | 2026-05-05 19:22 |
|---|---|
| Airport | London Heathrow Airport (EGLL) |
| Time | Latitude | Longitude | Altitude | Speed | Heading |
|---|---|---|---|---|---|
| 2026-05-05 17:20 | 53.36831 | -2.28897 | 223 ft | 0 kts | 133° |
| 2026-05-05 18:26 | 53.36835 | -2.28903 | 223 ft | 2 kts | 139° |
| 2026-05-05 18:27 | 53.36847 | -2.28916 | 223 ft | 2 kts | 159° |
| 2026-05-05 18:27 | 53.36868 | -2.28921 | 223 ft | 2 kts | 187° |
| 2026-05-05 18:27 | 53.36877 | -2.28917 | 223 ft | 2 kts | 201° |
| 2026-05-05 18:27 | 53.36890 | -2.28904 | 223 ft | 0 kts | 223° |
| 2026-05-05 18:28 | 53.36895 | -2.28896 | 223 ft | 0 kts | 226° |
| 2026-05-05 18:31 | 53.36886 | -2.28912 | 223 ft | 3 kts | 226° |
| 2026-05-05 18:31 | 53.36869 | -2.28942 | 223 ft | 6 kts | 226° |
| 2026-05-05 18:31 | 53.36799 | -2.29020 | 223 ft | 11 kts | 193° |
| 2026-05-05 18:32 | 53.36739 | -2.29022 | 223 ft | 13 kts | 166° |
| 2026-05-05 18:32 | 53.36647 | -2.28926 | 223 ft | 17 kts | 140° |
| 2026-05-05 18:32 | 53.36558 | -2.28684 | 223 ft | 19 kts | 130° |
| 2026-05-05 18:32 | 53.36494 | -2.28569 | 223 ft | 20 kts | 135° |
| 2026-05-05 18:33 | 53.36389 | -2.28395 | 226 ft | 21 kts | 133° |
| 2026-05-05 18:33 | 53.36289 | -2.28228 | 231 ft | 19 kts | 134° |
| 2026-05-05 18:33 | 53.36197 | -2.28073 | 235 ft | 19 kts | 137° |
| 2026-05-05 18:33 | 53.36033 | -2.27975 | 239 ft | 20 kts | 133° |
| 2026-05-05 18:34 | 53.35965 | -2.27864 | 242 ft | 19 kts | 148° |
| 2026-05-05 18:34 | 53.35762 | -2.27873 | 241 ft | 24 kts | 185° |
| 2026-05-05 18:34 | 53.35656 | -2.27890 | 241 ft | 17 kts | 185° |
| 2026-05-05 18:34 | 53.35471 | -2.27928 | 241 ft | 22 kts | 205° |
| 2026-05-05 18:35 | 53.35388 | -2.28033 | 239 ft | 22 kts | 224° |
| 2026-05-05 18:35 | 53.35271 | -2.28220 | 236 ft | 23 kts | 225° |
| 2026-05-05 18:35 | 53.35165 | -2.28437 | 232 ft | 24 kts | 231° |
| 2026-05-05 18:35 | 53.35043 | -2.28689 | 226 ft | 19 kts | 231° |
| 2026-05-05 18:36 | 53.34980 | -2.28804 | 224 ft | 20 kts | 227° |
| 2026-05-05 18:36 | 53.34875 | -2.28982 | 219 ft | 22 kts | 225° |
| 2026-05-05 18:36 | 53.34770 | -2.29191 | 214 ft | 24 kts | 232° |
| 2026-05-05 18:36 | 53.34678 | -2.29327 | 210 ft | 6 kts | 199° |
| 2026-05-05 18:37 | 53.34674 | -2.29329 | 210 ft | 0 kts | 196° |
| 2026-05-05 18:38 | 53.34661 | -2.29334 | 210 ft | 10 kts | 192° |
| 2026-05-05 18:38 | 53.34562 | -2.29177 | 210 ft | 21 kts | 53° |
| 2026-05-05 18:39 | 53.34644 | -2.29012 | 215 ft | 43 kts | 51° |
| 2026-05-05 18:39 | 53.35010 | -2.28249 | 232 ft | 117 kts | 51° |
| 2026-05-05 18:39 | 53.35654 | -2.26909 | 293 ft | 170 kts | 52° |
| 2026-05-05 18:39 | 53.36629 | -2.24896 | 1268 ft | 171 kts | 51° |
| 2026-05-05 18:40 | 53.37363 | -2.23337 | 2066 ft | 173 kts | 60° |
| 2026-05-05 18:40 | 53.37616 | -2.22073 | 2545 ft | 174 kts | 85° |
| 2026-05-05 18:40 | 53.37324 | -2.20127 | 3254 ft | 178 kts | 124° |
| 2026-05-05 18:40 | 53.36368 | -2.18764 | 3874 ft | 190 kts | 146° |
| 2026-05-05 18:41 | 53.35201 | -2.17655 | 4555 ft | 198 kts | 149° |
| 2026-05-05 18:41 | 53.33375 | -2.16790 | 5356 ft | 221 kts | 182° |
| 2026-05-05 18:41 | 53.32321 | -2.16993 | 5764 ft | 231 kts | 185° |
| 2026-05-05 18:41 | 53.30097 | -2.17516 | 6568 ft | 249 kts | 191° |
| 2026-05-05 18:42 | 53.28965 | -2.17921 | 7029 ft | 255 kts | 191° |
| 2026-05-05 18:42 | 53.27182 | -2.18400 | 7685 ft | 266 kts | 185° |
| 2026-05-05 18:42 | 53.24657 | -2.18567 | 8506 ft | 284 kts | 182° |
| 2026-05-05 18:42 | 53.22617 | -2.18715 | 9124 ft | 298 kts | 184° |
| 2026-05-05 18:43 | 53.21243 | -2.18901 | 9630 ft | 303 kts | 186° |
| 2026-05-05 18:43 | 53.19133 | -2.19258 | 10597 ft | 302 kts | 187° |
| 2026-05-05 18:43 | 53.17050 | -2.19648 | 11355 ft | 309 kts | 186° |
| 2026-05-05 18:43 | 53.14087 | -2.19508 | 11984 ft | 331 kts | 169° |
| 2026-05-05 18:44 | 53.12613 | -2.18852 | 12446 ft | 335 kts | 161° |
| 2026-05-05 18:44 | 53.10415 | -2.17382 | 13256 ft | 338 kts | 158° |
| 2026-05-05 18:44 | 53.07527 | -2.15323 | 14269 ft | 343 kts | 158° |
| 2026-05-05 18:44 | 53.06045 | -2.14268 | 14766 ft | 346 kts | 158° |
| 2026-05-05 18:45 | 53.03067 | -2.12172 | 15731 ft | 350 kts | 159° |
| 2026-05-05 18:45 | 53.01582 | -2.11137 | 16195 ft | 353 kts | 159° |
| 2026-05-05 18:45 | 52.99293 | -2.09548 | 16749 ft | 356 kts | 159° |
| 2026-05-05 18:45 | 52.96258 | -2.07453 | 17040 ft | 356 kts | 159° |
| 2026-05-05 18:46 | 52.94731 | -2.06402 | 17063 ft | 355 kts | 159° |
| 2026-05-05 18:46 | 52.92451 | -2.04834 | 17081 ft | 353 kts | 159° |
| 2026-05-05 18:46 | 52.90188 | -2.03281 | 17062 ft | 351 kts | 159° |
| 2026-05-05 18:46 | 52.87172 | -2.01216 | 17045 ft | 351 kts | 159° |
| 2026-05-05 18:47 | 52.85660 | -2.00182 | 17041 ft | 350 kts | 159° |
| 2026-05-05 18:47 | 52.82618 | -1.98102 | 17034 ft | 350 kts | 159° |
| 2026-05-05 18:47 | 52.80368 | -1.96566 | 17019 ft | 350 kts | 159° |
| 2026-05-05 18:47 | 52.78146 | -1.95053 | 17012 ft | 350 kts | 159° |
| 2026-05-05 18:48 | 52.76672 | -1.94049 | 17010 ft | 350 kts | 159° |
| 2026-05-05 18:48 | 52.74389 | -1.92495 | 17007 ft | 350 kts | 159° |
| 2026-05-05 18:48 | 52.72143 | -1.90968 | 17008 ft | 350 kts | 159° |
| 2026-05-05 18:48 | 52.69893 | -1.89440 | 17007 ft | 350 kts | 159° |
| 2026-05-05 18:49 | 52.67636 | -1.87909 | 17005 ft | 350 kts | 159° |
| 2026-05-05 18:49 | 52.65379 | -1.86380 | 17003 ft | 350 kts | 159° |
| 2026-05-05 18:49 | 52.63119 | -1.84849 | 17000 ft | 350 kts | 159° |
| 2026-05-05 18:49 | 52.60119 | -1.82819 | 16999 ft | 350 kts | 159° |
| 2026-05-05 18:50 | 52.58612 | -1.81801 | 16998 ft | 350 kts | 159° |
| 2026-05-05 18:50 | 52.56386 | -1.80299 | 16998 ft | 350 kts | 159° |
| 2026-05-05 18:50 | 52.53354 | -1.78255 | 16998 ft | 350 kts | 159° |
| 2026-05-05 18:50 | 52.51104 | -1.76740 | 16998 ft | 350 kts | 159° |
| 2026-05-05 18:51 | 52.49585 | -1.75719 | 16998 ft | 350 kts | 159° |
| 2026-05-05 18:51 | 52.46555 | -1.73683 | 16997 ft | 350 kts | 159° |
| 2026-05-05 18:51 | 52.45030 | -1.72659 | 16997 ft | 350 kts | 159° |
| 2026-05-05 18:51 | 52.42012 | -1.70638 | 16997 ft | 350 kts | 159° |
| 2026-05-05 18:52 | 52.39748 | -1.69124 | 16997 ft | 350 kts | 159° |
| 2026-05-05 18:52 | 52.38245 | -1.68118 | 16997 ft | 350 kts | 158° |
| 2026-05-05 18:52 | 52.36077 | -1.66379 | 16997 ft | 351 kts | 150° |
| 2026-05-05 18:52 | 52.34042 | -1.64119 | 16998 ft | 352 kts | 142° |
| 2026-05-05 18:53 | 52.32134 | -1.61500 | 16999 ft | 352 kts | 139° |
| 2026-05-05 18:53 | 52.30302 | -1.58885 | 16999 ft | 352 kts | 139° |
| 2026-05-05 18:53 | 52.27835 | -1.55361 | 16998 ft | 352 kts | 139° |
| 2026-05-05 18:53 | 52.25991 | -1.52750 | 16997 ft | 352 kts | 139° |
| 2026-05-05 18:54 | 52.24126 | -1.50122 | 16996 ft | 352 kts | 140° |
| 2026-05-05 18:54 | 52.22255 | -1.47494 | 16994 ft | 352 kts | 140° |
| 2026-05-05 18:54 | 52.20988 | -1.45719 | 16993 ft | 352 kts | 140° |
| 2026-05-05 18:54 | 52.19131 | -1.43124 | 16991 ft | 351 kts | 140° |
| 2026-05-05 18:55 | 52.18232 | -1.41868 | 16990 ft | 352 kts | 140° |
| 2026-05-05 19:03 | 52.16095 | -1.38885 | 16989 ft | 352 kts | 140° |
| 2026-05-05 19:03 | 52.14859 | -1.37161 | 16989 ft | 352 kts | 140° |
| 2026-05-05 19:03 | 52.12965 | -1.34520 | 16989 ft | 352 kts | 140° |
| 2026-05-05 19:03 | 52.10516 | -1.31109 | 16784 ft | 352 kts | 140° |
| 2026-05-05 19:04 | 52.09344 | -1.29479 | 16579 ft | 350 kts | 140° |
| 2026-05-05 19:04 | 52.06924 | -1.26115 | 16083 ft | 348 kts | 140° |
| 2026-05-05 19:04 | 52.05737 | -1.24466 | 15782 ft | 347 kts | 140° |
| 2026-05-05 19:04 | 52.03902 | -1.21921 | 15467 ft | 339 kts | 140° |
| 2026-05-05 19:05 | 52.02155 | -1.19495 | 15335 ft | 327 kts | 140° |
| 2026-05-05 19:05 | 52.00460 | -1.17142 | 15207 ft | 314 kts | 140° |
| 2026-05-05 19:05 | 51.98293 | -1.14144 | 15057 ft | 299 kts | 140° |
| 2026-05-05 19:05 | 51.96714 | -1.11963 | 14966 ft | 307 kts | 141° |
| 2026-05-05 19:06 | 51.95613 | -1.10448 | 14972 ft | 314 kts | 141° |
| 2026-05-05 19:06 | 51.93939 | -1.08146 | 14748 ft | 316 kts | 141° |
| 2026-05-05 19:06 | 51.92236 | -1.05805 | 14247 ft | 319 kts | 140° |
| 2026-05-05 19:06 | 51.90581 | -1.03531 | 14069 ft | 310 kts | 140° |
| 2026-05-05 19:07 | 51.88988 | -1.01341 | 13792 ft | 305 kts | 140° |
| 2026-05-05 19:07 | 51.87377 | -0.99128 | 13503 ft | 299 kts | 140° |
| 2026-05-05 19:07 | 51.85859 | -0.96957 | 13108 ft | 290 kts | 133° |
| 2026-05-05 19:07 | 51.84367 | -0.93433 | 12767 ft | 285 kts | 117° |
| 2026-05-05 19:08 | 51.83767 | -0.91499 | 12623 ft | 285 kts | 116° |
| 2026-05-05 19:08 | 51.82916 | -0.88646 | 12461 ft | 284 kts | 115° |
| 2026-05-05 19:08 | 51.82056 | -0.85765 | 12299 ft | 284 kts | 116° |
| 2026-05-05 19:08 | 51.81289 | -0.83225 | 12157 ft | 283 kts | 116° |
| 2026-05-05 19:09 | 51.80433 | -0.80392 | 11982 ft | 273 kts | 116° |
| 2026-05-05 19:09 | 51.79615 | -0.77686 | 11761 ft | 270 kts | 116° |
| 2026-05-05 19:09 | 51.78793 | -0.74971 | 11415 ft | 269 kts | 116° |
| 2026-05-05 19:09 | 51.77694 | -0.71347 | 10953 ft | 269 kts | 116° |
| 2026-05-05 19:10 | 51.77136 | -0.69511 | 10718 ft | 269 kts | 116° |
| 2026-05-05 19:10 | 51.76310 | -0.66794 | 10353 ft | 268 kts | 116° |
| 2026-05-05 19:10 | 51.75482 | -0.64079 | 9976 ft | 269 kts | 116° |
| 2026-05-05 19:10 | 51.74660 | -0.61393 | 9603 ft | 269 kts | 115° |
| 2026-05-05 19:11 | 51.73830 | -0.58691 | 9223 ft | 269 kts | 116° |
| 2026-05-05 19:11 | 51.72944 | -0.56066 | 8952 ft | 264 kts | 129° |
| 2026-05-05 19:11 | 51.71530 | -0.54240 | 8700 ft | 259 kts | 158° |
| 2026-05-05 19:11 | 51.69810 | -0.53672 | 8457 ft | 253 kts | 176° |
| 2026-05-05 19:12 | 51.68122 | -0.53605 | 8218 ft | 251 kts | 181° |
| 2026-05-05 19:12 | 51.66365 | -0.54252 | 7961 ft | 250 kts | 211° |
| 2026-05-05 19:12 | 51.65126 | -0.56148 | 7956 ft | 250 kts | 234° |
| 2026-05-05 19:12 | 51.63920 | -0.59313 | 7947 ft | 250 kts | 240° |
| 2026-05-05 19:13 | 51.63347 | -0.60953 | 7940 ft | 251 kts | 240° |
| 2026-05-05 19:13 | 51.62467 | -0.63414 | 7941 ft | 251 kts | 241° |
| 2026-05-05 19:13 | 51.61579 | -0.65831 | 7936 ft | 251 kts | 241° |
| 2026-05-05 19:13 | 51.60710 | -0.68271 | 7943 ft | 251 kts | 241° |
| 2026-05-05 19:14 | 51.59857 | -0.70711 | 7938 ft | 252 kts | 241° |
| 2026-05-05 19:14 | 51.58977 | -0.73169 | 7940 ft | 252 kts | 241° |
| 2026-05-05 19:14 | 51.58096 | -0.75602 | 7713 ft | 253 kts | 241° |
| 2026-05-05 19:14 | 51.57198 | -0.78026 | 7381 ft | 252 kts | 240° |
| 2026-05-05 19:15 | 51.56298 | -0.80446 | 7056 ft | 252 kts | 240° |
| 2026-05-05 19:15 | 51.55408 | -0.82856 | 6734 ft | 250 kts | 241° |
| 2026-05-05 19:15 | 51.54527 | -0.85270 | 6407 ft | 249 kts | 240° |
| 2026-05-05 19:15 | 51.53269 | -0.88383 | 5939 ft | 248 kts | 223° |
| 2026-05-05 19:16 | 51.52341 | -0.89426 | 5717 ft | 247 kts | 202° |
| 2026-05-05 19:16 | 51.50050 | -0.90086 | 5295 ft | 254 kts | 182° |
| 2026-05-05 19:16 | 51.48880 | -0.89960 | 5069 ft | 254 kts | 164° |
| 2026-05-05 19:16 | 51.47339 | -0.88620 | 4753 ft | 249 kts | 132° |
| 2026-05-05 19:17 | 51.45963 | -0.85687 | 4388 ft | 245 kts | 112° |
| 2026-05-05 19:17 | 51.45670 | -0.83991 | 4196 ft | 239 kts | 88° |
| 2026-05-05 19:17 | 51.45778 | -0.81324 | 3922 ft | 237 kts | 82° |
| 2026-05-05 19:17 | 51.46306 | -0.77987 | 3548 ft | 225 kts | 64° |
| 2026-05-05 19:18 | 51.46724 | -0.76506 | 3360 ft | 217 kts | 62° |
| 2026-05-05 19:18 | 51.47057 | -0.74228 | 3061 ft | 204 kts | 95° |
| 2026-05-05 19:18 | 51.46674 | -0.71426 | 2877 ft | 188 kts | 98° |
| 2026-05-05 19:18 | 51.46525 | -0.70052 | 2718 ft | 185 kts | 94° |
| 2026-05-05 19:19 | 51.46423 | -0.68015 | 2491 ft | 183 kts | 87° |
| 2026-05-05 19:19 | 51.46424 | -0.65968 | 2260 ft | 182 kts | 85° |
| 2026-05-05 19:19 | 51.46461 | -0.63265 | 1927 ft | 181 kts | 85° |
| 2026-05-05 19:19 | 51.46495 | -0.61264 | 1676 ft | 180 kts | 85° |
| 2026-05-05 19:20 | 51.46512 | -0.59915 | 1418 ft | 181 kts | 88° |
| 2026-05-05 19:20 | 51.46444 | -0.57918 | 1433 ft | 180 kts | 91° |
| 2026-05-05 19:20 | 51.46401 | -0.55909 | 1184 ft | 174 kts | 85° |
| 2026-05-05 19:20 | 51.46453 | -0.54036 | 802 ft | 166 kts | 85° |
| 2026-05-05 19:21 | 51.46476 | -0.52224 | 515 ft | 154 kts | 88° |
| 2026-05-05 19:21 | 51.46469 | -0.50091 | 275 ft | 132 kts | 86° |
| 2026-05-05 19:21 | 51.46472 | -0.49126 | 179 ft | 134 kts | 85° |
| 2026-05-05 19:21 | 51.46484 | -0.47195 | 81 ft | 98 kts | 86° |
| 2026-05-05 19:22 | 51.46489 | -0.46676 | 82 ft | 47 kts | 88° |
| 2026-05-05 19:22 | 51.46486 | -0.46159 | 85 ft | 48 kts | 91° |
| 2026-05-05 19:22 | 51.46566 | -0.45694 | 88 ft | 26 kts | 48° |
| 2026-05-05 19:22 | 51.46619 | -0.45647 | 89 ft | 0 kts | 31° |